sensor_id;sensor_type;location;lat;lon;timestamp;P1;durP1;ratioP1;P2;durP2;ratioP2
53497;SDS011;39382;47.168;16.008;2023-05-08T00:01:59;5.95;;;4.60;;
53497;SDS011;39382;47.168;16.008;2023-05-08T00:04:25;9.95;;;4.18;;
53497;SDS011;39382;47.168;16.008;2023-05-08T00:06:50;6.75;;;4.68;;
53497;SDS011;39382;47.168;16.008;2023-05-08T00:09:17;6.20;;;4.18;;
53497;SDS011;39382;47.168;16.008;2023-05-08T00:11:43;5.05;;;4.32;;
53497;SDS011;39382;47.168;16.008;2023-05-08T00:14:09;7.32;;;5.10;;
53497;SDS011;39382;47.168;16.008;2023-05-08T00:16:34;5.28;;;3.95;;
53497;SDS011;39382;47.168;16.008;2023-05-08T00:19:01;10.57;;;4.57;;
53497;SDS011;39382;47.168;16.008;2023-05-08T00:21:27;7.13;;;3.80;;
53497;SDS011;39382;47.168;16.008;2023-05-08T00:23:52;6.50;;;5.07;;
53497;SDS011;39382;47.168;16.008;2023-05-08T00:26:18;6.30;;;4.93;;
53497;SDS011;39382;47.168;16.008;2023-05-08T00:28:44;5.28;;;4.47;;
53497;SDS011;39382;47.168;16.008;2023-05-08T00:31:10;10.80;;;5.78;;
53497;SDS011;39382;47.168;16.008;2023-05-08T00:33:36;7.53;;;4.95;;
53497;SDS011;39382;47.168;16.008;2023-05-08T00:36:02;5.80;;;4.47;;
53497;SDS011;39382;47.168;16.008;2023-05-08T00:38:29;6.57;;;4.88;;
53497;SDS011;39382;47.168;16.008;2023-05-08T00:40:56;11.65;;;5.07;;
53497;SDS011;39382;47.168;16.008;2023-05-08T00:43:22;6.88;;;4.70;;
53497;SDS011;39382;47.168;16.008;2023-05-08T00:45:51;5.72;;;4.68;;
53497;SDS011;39382;47.168;16.008;2023-05-08T00:48:21;7.28;;;5.30;;
53497;SDS011;39382;47.168;16.008;2023-05-08T00:50:48;7.07;;;5.35;;
53497;SDS011;39382;47.168;16.008;2023-05-08T00:53:18;7.40;;;5.32;;
53497;SDS011;39382;47.168;16.008;2023-05-08T00:55:44;6.78;;;5.07;;
53497;SDS011;39382;47.168;16.008;2023-05-08T00:58:11;7.82;;;5.30;;
53497;SDS011;39382;47.168;16.008;2023-05-08T01:00:38;7.15;;;6.28;;
53497;SDS011;39382;47.168;16.008;2023-05-08T01:03:05;7.55;;;5.05;;
53497;SDS011;39382;47.168;16.008;2023-05-08T01:05:33;11.98;;;6.95;;
53497;SDS011;39382;47.168;16.008;2023-05-08T01:07:59;7.30;;;6.05;;
53497;SDS011;39382;47.168;16.008;2023-05-08T01:10:26;9.77;;;6.53;;
53497;SDS011;39382;47.168;16.008;2023-05-08T01:15:50;11.07;;;7.60;;
53497;SDS011;39382;47.168;16.008;2023-05-08T01:18:36;10.10;;;6.53;;
53497;SDS011;39382;47.168;16.008;2023-05-08T01:21:27;8.30;;;5.50;;
53497;SDS011;39382;47.168;16.008;2023-05-08T01:27:05;8.55;;;6.00;;
53497;SDS011;39382;47.168;16.008;2023-05-08T01:33:00;8.10;;;6.22;;
53497;SDS011;39382;47.168;16.008;2023-05-08T01:35:33;9.40;;;6.72;;
53497;SDS011;39382;47.168;16.008;2023-05-08T01:38:15;8.82;;;6.93;;
53497;SDS011;39382;47.168;16.008;2023-05-08T01:43:31;10.50;;;7.32;;
53497;SDS011;39382;47.168;16.008;2023-05-08T01:46:25;10.00;;;6.88;;
53497;SDS011;39382;47.168;16.008;2023-05-08T01:48:57;9.88;;;7.20;;
53497;SDS011;39382;47.168;16.008;2023-05-08T01:51:48;9.80;;;6.30;;
53497;SDS011;39382;47.168;16.008;2023-05-08T01:54:22;11.60;;;6.95;;
53497;SDS011;39382;47.168;16.008;2023-05-08T01:56:51;11.00;;;7.07;;
53497;SDS011;39382;47.168;16.008;2023-05-08T01:59:20;9.32;;;7.07;;
53497;SDS011;39382;47.168;16.008;2023-05-08T02:01:48;10.70;;;7.10;;
53497;SDS011;39382;47.168;16.008;2023-05-08T02:04:16;11.75;;;6.78;;
53497;SDS011;39382;47.168;16.008;2023-05-08T02:06:43;9.80;;;6.43;;
53497;SDS011;39382;47.168;16.008;2023-05-08T02:09:09;15.30;;;7.35;;
53497;SDS011;39382;47.168;16.008;2023-05-08T02:11:37;10.93;;;8.20;;
53497;SDS011;39382;47.168;16.008;2023-05-08T02:14:04;8.93;;;7.05;;
53497;SDS011;39382;47.168;16.008;2023-05-08T02:16:32;9.30;;;6.53;;
53497;SDS011;39382;47.168;16.008;2023-05-08T02:19:00;10.60;;;7.20;;
53497;SDS011;39382;47.168;16.008;2023-05-08T02:21:26;9.73;;;6.93;;
53497;SDS011;39382;47.168;16.008;2023-05-08T02:23:55;11.02;;;7.55;;
53497;SDS011;39382;47.168;16.008;2023-05-08T02:26:21;12.82;;;7.90;;
53497;SDS011;39382;47.168;16.008;2023-05-08T02:28:57;12.32;;;7.70;;
53497;SDS011;39382;47.168;16.008;2023-05-08T02:31:24;11.75;;;6.93;;
53497;SDS011;39382;47.168;16.008;2023-05-08T02:33:51;15.07;;;8.68;;
53497;SDS011;39382;47.168;16.008;2023-05-08T02:36:18;11.63;;;8.23;;
53497;SDS011;39382;47.168;16.008;2023-05-08T02:38:44;10.88;;;7.25;;
53497;SDS011;39382;47.168;16.008;2023-05-08T02:41:15;13.27;;;7.38;;
53497;SDS011;39382;47.168;16.008;2023-05-08T02:43:43;11.38;;;7.93;;
53497;SDS011;39382;47.168;16.008;2023-05-08T02:46:14;10.20;;;7.32;;
53497;SDS011;39382;47.168;16.008;2023-05-08T02:48:46;12.18;;;8.27;;
53497;SDS011;39382;47.168;16.008;2023-05-08T02:51:45;10.48;;;7.15;;
53497;SDS011;39382;47.168;16.008;2023-05-08T02:54:16;11.85;;;6.85;;
53497;SDS011;39382;47.168;16.008;2023-05-08T02:59:29;10.55;;;7.35;;
53497;SDS011;39382;47.168;16.008;2023-05-08T03:02:06;9.27;;;7.05;;
53497;SDS011;39382;47.168;16.008;2023-05-08T03:04:38;10.73;;;7.57;;
53497;SDS011;39382;47.168;16.008;2023-05-08T03:07:06;12.43;;;8.13;;
53497;SDS011;39382;47.168;16.008;2023-05-08T03:09:37;8.88;;;6.45;;
53497;SDS011;39382;47.168;16.008;2023-05-08T03:12:08;9.55;;;7.90;;
53497;SDS011;39382;47.168;16.008;2023-05-08T03:14:40;12.90;;;8.18;;
53497;SDS011;39382;47.168;16.008;2023-05-08T03:17:10;10.57;;;7.25;;
53497;SDS011;39382;47.168;16.008;2023-05-08T03:19:38;12.32;;;6.90;;
53497;SDS011;39382;47.168;16.008;2023-05-08T03:22:06;10.70;;;7.40;;
53497;SDS011;39382;47.168;16.008;2023-05-08T03:24:34;10.20;;;7.25;;
53497;SDS011;39382;47.168;16.008;2023-05-08T03:27:02;9.95;;;8.02;;
53497;SDS011;39382;47.168;16.008;2023-05-08T03:29:29;11.38;;;7.13;;
53497;SDS011;39382;47.168;16.008;2023-05-08T03:31:57;16.17;;;8.13;;
53497;SDS011;39382;47.168;16.008;2023-05-08T03:34:26;12.13;;;7.38;;
53497;SDS011;39382;47.168;16.008;2023-05-08T03:36:53;10.98;;;7.82;;
53497;SDS011;39382;47.168;16.008;2023-05-08T03:39:20;12.88;;;8.10;;
53497;SDS011;39382;47.168;16.008;2023-05-08T03:41:46;13.00;;;7.55;;
53497;SDS011;39382;47.168;16.008;2023-05-08T03:44:13;15.93;;;8.70;;
53497;SDS011;39382;47.168;16.008;2023-05-08T03:46:40;12.45;;;7.70;;
53497;SDS011;39382;47.168;16.008;2023-05-08T03:49:08;12.77;;;7.50;;
53497;SDS011;39382;47.168;16.008;2023-05-08T03:51:35;16.23;;;8.63;;
53497;SDS011;39382;47.168;16.008;2023-05-08T03:54:04;11.30;;;7.70;;
53497;SDS011;39382;47.168;16.008;2023-05-08T03:56:29;10.35;;;7.57;;
53497;SDS011;39382;47.168;16.008;2023-05-08T03:58:58;12.93;;;7.60;;
53497;SDS011;39382;47.168;16.008;2023-05-08T04:01:36;10.80;;;7.88;;
53497;SDS011;39382;47.168;16.008;2023-05-08T04:07:18;12.90;;;8.25;;
53497;SDS011;39382;47.168;16.008;2023-05-08T04:10:03;10.27;;;7.32;;
53497;SDS011;39382;47.168;16.008;2023-05-08T04:12:42;11.30;;;8.23;;
53497;SDS011;39382;47.168;16.008;2023-05-08T04:15:49;10.90;;;7.40;;
53497;SDS011;39382;47.168;16.008;2023-05-08T04:18:17;14.00;;;8.43;;
53497;SDS011;39382;47.168;16.008;2023-05-08T04:20:46;11.77;;;8.00;;
53497;SDS011;39382;47.168;16.008;2023-05-08T04:23:14;13.70;;;8.30;;
53497;SDS011;39382;47.168;16.008;2023-05-08T04:25:42;10.50;;;7.53;;
53497;SDS011;39382;47.168;16.008;2023-05-08T04:28:10;15.25;;;8.45;;
53497;SDS011;39382;47.168;16.008;2023-05-08T04:30:36;14.02;;;8.35;;
53497;SDS011;39382;47.168;16.008;2023-05-08T04:33:03;13.90;;;8.20;;
53497;SDS011;39382;47.168;16.008;2023-05-08T04:35:30;10.68;;;7.75;;
53497;SDS011;39382;47.168;16.008;2023-05-08T04:37:57;16.48;;;9.55;;
53497;SDS011;39382;47.168;16.008;2023-05-08T04:40:23;12.98;;;8.05;;
53497;SDS011;39382;47.168;16.008;2023-05-08T04:42:49;13.02;;;9.18;;
53497;SDS011;39382;47.168;16.008;2023-05-08T04:45:15;11.57;;;7.57;;
53497;SDS011;39382;47.168;16.008;2023-05-08T04:47:41;12.57;;;8.05;;
53497;SDS011;39382;47.168;16.008;2023-05-08T04:50:07;12.82;;;7.40;;
53497;SDS011;39382;47.168;16.008;2023-05-08T04:52:33;10.73;;;7.18;;
53497;SDS011;39382;47.168;16.008;2023-05-08T04:54:58;10.70;;;7.30;;
53497;SDS011;39382;47.168;16.008;2023-05-08T04:57:24;12.88;;;8.07;;
53497;SDS011;39382;47.168;16.008;2023-05-08T04:59:49;9.80;;;7.18;;
53497;SDS011;39382;47.168;16.008;2023-05-08T05:02:15;13.10;;;8.85;;
53497;SDS011;39382;47.168;16.008;2023-05-08T05:04:41;10.32;;;7.13;;
53497;SDS011;39382;47.168;16.008;2023-05-08T05:07:06;14.35;;;7.97;;
53497;SDS011;39382;47.168;16.008;2023-05-08T05:09:32;15.25;;;8.88;;
53497;SDS011;39382;47.168;16.008;2023-05-08T05:12:01;10.75;;;7.88;;
53497;SDS011;39382;47.168;16.008;2023-05-08T05:14:27;10.48;;;7.78;;
53497;SDS011;39382;47.168;16.008;2023-05-08T05:16:53;12.98;;;8.18;;
53497;SDS011;39382;47.168;16.008;2023-05-08T05:19:18;11.73;;;7.78;;
53497;SDS011;39382;47.168;16.008;2023-05-08T05:21:44;10.80;;;7.30;;
53497;SDS011;39382;47.168;16.008;2023-05-08T05:24:10;12.30;;;8.13;;
53497;SDS011;39382;47.168;16.008;2023-05-08T05:26:36;12.35;;;8.20;;
53497;SDS011;39382;47.168;16.008;2023-05-08T05:29:02;14.15;;;8.60;;
53497;SDS011;39382;47.168;16.008;2023-05-08T05:31:27;5.03;;;4.20;;
53497;SDS011;39382;47.168;16.008;2023-05-08T05:33:54;12.75;;;8.82;;
53497;SDS011;39382;47.168;16.008;2023-05-08T05:36:20;12.68;;;8.48;;
53497;SDS011;39382;47.168;16.008;2023-05-08T05:38:46;10.77;;;8.50;;
53497;SDS011;39382;47.168;16.008;2023-05-08T05:41:11;11.75;;;8.52;;
53497;SDS011;39382;47.168;16.008;2023-05-08T05:43:37;19.17;;;8.40;;
53497;SDS011;39382;47.168;16.008;2023-05-08T05:46:06;11.95;;;7.47;;
53497;SDS011;39382;47.168;16.008;2023-05-08T05:48:33;13.40;;;8.10;;
53497;SDS011;39382;47.168;16.008;2023-05-08T05:50:59;11.57;;;7.00;;
53497;SDS011;39382;47.168;16.008;2023-05-08T05:53:25;14.75;;;8.73;;
53497;SDS011;39382;47.168;16.008;2023-05-08T05:55:51;14.38;;;8.60;;
53497;SDS011;39382;47.168;16.008;2023-05-08T05:58:17;10.52;;;7.97;;
53497;SDS011;39382;47.168;16.008;2023-05-08T06:00:43;11.45;;;7.88;;
53497;SDS011;39382;47.168;16.008;2023-05-08T06:03:09;12.40;;;8.45;;
53497;SDS011;39382;47.168;16.008;2023-05-08T06:05:35;11.55;;;8.55;;
53497;SDS011;39382;47.168;16.008;2023-05-08T06:08:01;12.65;;;8.35;;
53497;SDS011;39382;47.168;16.008;2023-05-08T06:10:27;13.50;;;7.38;;
53497;SDS011;39382;47.168;16.008;2023-05-08T06:12:53;11.50;;;8.68;;
53497;SDS011;39382;47.168;16.008;2023-05-08T06:15:19;11.93;;;8.00;;
53497;SDS011;39382;47.168;16.008;2023-05-08T06:17:45;11.15;;;7.38;;
53497;SDS011;39382;47.168;16.008;2023-05-08T06:20:10;11.23;;;7.22;;
53497;SDS011;39382;47.168;16.008;2023-05-08T06:22:36;11.20;;;7.10;;
53497;SDS011;39382;47.168;16.008;2023-05-08T06:25:04;11.75;;;7.38;;
53497;SDS011;39382;47.168;16.008;2023-05-08T06:27:31;11.65;;;7.97;;
53497;SDS011;39382;47.168;16.008;2023-05-08T06:29:57;11.85;;;7.55;;
53497;SDS011;39382;47.168;16.008;2023-05-08T06:32:23;10.85;;;6.90;;
53497;SDS011;39382;47.168;16.008;2023-05-08T06:34:48;11.52;;;7.53;;
53497;SDS011;39382;47.168;16.008;2023-05-08T06:37:14;10.55;;;7.28;;
53497;SDS011;39382;47.168;16.008;2023-05-08T06:39:40;9.85;;;8.07;;
53497;SDS011;39382;47.168;16.008;2023-05-08T06:42:05;11.77;;;8.25;;
53497;SDS011;39382;47.168;16.008;2023-05-08T06:44:32;11.82;;;8.82;;
53497;SDS011;39382;47.168;16.008;2023-05-08T06:46:57;11.35;;;8.20;;
53497;SDS011;39382;47.168;16.008;2023-05-08T06:49:23;13.30;;;7.63;;
53497;SDS011;39382;47.168;16.008;2023-05-08T06:51:49;10.60;;;7.57;;
53497;SDS011;39382;47.168;16.008;2023-05-08T06:54:15;9.77;;;7.15;;
53497;SDS011;39382;47.168;16.008;2023-05-08T06:56:41;9.98;;;7.22;;
53497;SDS011;39382;47.168;16.008;2023-05-08T06:59:06;13.10;;;8.55;;
53497;SDS011;39382;47.168;16.008;2023-05-08T07:01:32;10.93;;;7.40;;
53497;SDS011;39382;47.168;16.008;2023-05-08T07:03:58;13.13;;;7.97;;
53497;SDS011;39382;47.168;16.008;2023-05-08T07:06:24;11.18;;;7.65;;
53497;SDS011;39382;47.168;16.008;2023-05-08T07:08:50;11.98;;;8.15;;
53497;SDS011;39382;47.168;16.008;2023-05-08T07:11:15;13.38;;;8.23;;
53497;SDS011;39382;47.168;16.008;2023-05-08T07:13:41;12.35;;;8.35;;
53497;SDS011;39382;47.168;16.008;2023-05-08T07:16:12;12.75;;;8.05;;
53497;SDS011;39382;47.168;16.008;2023-05-08T07:18:38;14.27;;;7.32;;
53497;SDS011;39382;47.168;16.008;2023-05-08T07:21:04;12.18;;;7.45;;
53497;SDS011;39382;47.168;16.008;2023-05-08T07:23:30;11.73;;;7.93;;
53497;SDS011;39382;47.168;16.008;2023-05-08T07:25:55;12.90;;;8.55;;
53497;SDS011;39382;47.168;16.008;2023-05-08T07:28:22;13.13;;;7.43;;
53497;SDS011;39382;47.168;16.008;2023-05-08T07:30:47;14.15;;;9.30;;
53497;SDS011;39382;47.168;16.008;2023-05-08T07:33:13;13.60;;;8.65;;
53497;SDS011;39382;47.168;16.008;2023-05-08T07:35:39;15.50;;;8.73;;
53497;SDS011;39382;47.168;16.008;2023-05-08T07:38:05;12.77;;;8.70;;
53497;SDS011;39382;47.168;16.008;2023-05-08T07:40:31;12.25;;;8.13;;
53497;SDS011;39382;47.168;16.008;2023-05-08T07:42:57;10.73;;;7.70;;
53497;SDS011;39382;47.168;16.008;2023-05-08T07:45:23;15.65;;;9.02;;
53497;SDS011;39382;47.168;16.008;2023-05-08T07:50:15;14.02;;;7.70;;
53497;SDS011;39382;47.168;16.008;2023-05-08T07:52:41;14.85;;;8.85;;
53497;SDS011;39382;47.168;16.008;2023-05-08T07:55:07;12.55;;;9.18;;
53497;SDS011;39382;47.168;16.008;2023-05-08T07:57:36;14.55;;;8.35;;
53497;SDS011;39382;47.168;16.008;2023-05-08T08:00:06;19.23;;;8.45;;
53497;SDS011;39382;47.168;16.008;2023-05-08T08:02:34;12.70;;;8.60;;
53497;SDS011;39382;47.168;16.008;2023-05-08T08:05:00;11.60;;;8.18;;
53497;SDS011;39382;47.168;16.008;2023-05-08T08:07:25;12.70;;;8.50;;
53497;SDS011;39382;47.168;16.008;2023-05-08T08:09:51;13.43;;;7.47;;
53497;SDS011;39382;47.168;16.008;2023-05-08T08:12:17;11.98;;;8.02;;
53497;SDS011;39382;47.168;16.008;2023-05-08T08:14:42;13.63;;;7.60;;
53497;SDS011;39382;47.168;16.008;2023-05-08T08:17:08;10.02;;;7.22;;
53497;SDS011;39382;47.168;16.008;2023-05-08T08:19:33;13.25;;;8.65;;
53497;SDS011;39382;47.168;16.008;2023-05-08T08:21:59;13.02;;;7.75;;
53497;SDS011;39382;47.168;16.008;2023-05-08T08:24:25;12.88;;;8.23;;
53497;SDS011;39382;47.168;16.008;2023-05-08T08:26:52;9.68;;;7.50;;
53497;SDS011;39382;47.168;16.008;2023-05-08T08:29:18;9.60;;;7.25;;
53497;SDS011;39382;47.168;16.008;2023-05-08T08:31:44;10.90;;;6.90;;
53497;SDS011;39382;47.168;16.008;2023-05-08T08:34:10;9.60;;;7.00;;
53497;SDS011;39382;47.168;16.008;2023-05-08T08:36:36;13.00;;;7.60;;
53497;SDS011;39382;47.168;16.008;2023-05-08T08:39:02;10.25;;;7.15;;
53497;SDS011;39382;47.168;16.008;2023-05-08T08:41:28;10.13;;;8.02;;
53497;SDS011;39382;47.168;16.008;2023-05-08T08:43:54;11.63;;;7.50;;
53497;SDS011;39382;47.168;16.008;2023-05-08T08:46:22;13.30;;;7.32;;
53497;SDS011;39382;47.168;16.008;2023-05-08T08:48:49;10.48;;;7.47;;
53497;SDS011;39382;47.168;16.008;2023-05-08T08:51:20;11.45;;;7.53;;
53497;SDS011;39382;47.168;16.008;2023-05-08T08:54:08;10.68;;;6.50;;
53497;SDS011;39382;47.168;16.008;2023-05-08T08:56:37;9.23;;;7.25;;
53497;SDS011;39382;47.168;16.008;2023-05-08T08:59:06;9.23;;;7.47;;
53497;SDS011;39382;47.168;16.008;2023-05-08T09:01:33;12.77;;;6.72;;
53497;SDS011;39382;47.168;16.008;2023-05-08T09:04:00;12.25;;;6.63;;
53497;SDS011;39382;47.168;16.008;2023-05-08T09:06:27;9.98;;;6.63;;
53497;SDS011;39382;47.168;16.008;2023-05-08T09:08:56;9.38;;;6.88;;
53497;SDS011;39382;47.168;16.008;2023-05-08T09:11:25;9.93;;;6.57;;
53497;SDS011;39382;47.168;16.008;2023-05-08T09:13:51;10.98;;;7.13;;
53497;SDS011;39382;47.168;16.008;2023-05-08T09:16:18;8.82;;;5.93;;
53497;SDS011;39382;47.168;16.008;2023-05-08T09:18:44;10.30;;;6.00;;
53497;SDS011;39382;47.168;16.008;2023-05-08T09:21:10;9.45;;;5.75;;
53497;SDS011;39382;47.168;16.008;2023-05-08T09:23:36;9.63;;;5.72;;
53497;SDS011;39382;47.168;16.008;2023-05-08T09:26:51;8.07;;;6.00;;
53497;SDS011;39382;47.168;16.008;2023-05-08T09:29:14;8.82;;;5.60;;
53497;SDS011;39382;47.168;16.008;2023-05-08T09:31:45;11.40;;;7.20;;
53497;SDS011;39382;47.168;16.008;2023-05-08T09:34:25;8.55;;;6.57;;
53497;SDS011;39382;47.168;16.008;2023-05-08T09:36:52;8.73;;;6.85;;
53497;SDS011;39382;47.168;16.008;2023-05-08T09:39:33;8.27;;;5.95;;
53497;SDS011;39382;47.168;16.008;2023-05-08T09:42:00;10.13;;;6.80;;
53497;SDS011;39382;47.168;16.008;2023-05-08T09:47:28;7.28;;;5.32;;
53497;SDS011;39382;47.168;16.008;2023-05-08T09:52:32;9.23;;;6.22;;
53497;SDS011;39382;47.168;16.008;2023-05-08T09:55:06;7.70;;;5.97;;
53497;SDS011;39382;47.168;16.008;2023-05-08T09:57:37;8.82;;;6.15;;
53497;SDS011;39382;47.168;16.008;2023-05-08T10:00:15;9.65;;;6.57;;
53497;SDS011;39382;47.168;16.008;2023-05-08T10:02:41;7.90;;;6.03;;
53497;SDS011;39382;47.168;16.008;2023-05-08T10:07:54;6.80;;;5.90;;
53497;SDS011;39382;47.168;16.008;2023-05-08T10:10:28;7.13;;;5.47;;
53497;SDS011;39382;47.168;16.008;2023-05-08T10:12:57;5.88;;;5.00;;
53497;SDS011;39382;47.168;16.008;2023-05-08T10:15:24;7.38;;;5.35;;
53497;SDS011;39382;47.168;16.008;2023-05-08T10:17:53;6.53;;;5.32;;
53497;SDS011;39382;47.168;16.008;2023-05-08T10:20:26;9.85;;;6.57;;
53497;SDS011;39382;47.168;16.008;2023-05-08T10:22:54;7.93;;;5.78;;
53497;SDS011;39382;47.168;16.008;2023-05-08T10:25:21;5.78;;;5.07;;
53497;SDS011;39382;47.168;16.008;2023-05-08T10:30:22;8.90;;;6.10;;
53497;SDS011;39382;47.168;16.008;2023-05-08T10:32:50;6.70;;;4.93;;
53497;SDS011;39382;47.168;16.008;2023-05-08T10:35:19;5.82;;;4.72;;
53497;SDS011;39382;47.168;16.008;2023-05-08T10:37:46;7.28;;;5.50;;
53497;SDS011;39382;47.168;16.008;2023-05-08T10:40:13;7.03;;;5.20;;
53497;SDS011;39382;47.168;16.008;2023-05-08T10:42:48;7.60;;;4.95;;
53497;SDS011;39382;47.168;16.008;2023-05-08T10:45:15;5.32;;;4.30;;
53497;SDS011;39382;47.168;16.008;2023-05-08T10:47:47;5.78;;;4.78;;
53497;SDS011;39382;47.168;16.008;2023-05-08T10:53:16;4.57;;;3.53;;
53497;SDS011;39382;47.168;16.008;2023-05-08T10:55:47;4.60;;;3.90;;
53497;SDS011;39382;47.168;16.008;2023-05-08T11:03:25;5.70;;;3.95;;
53497;SDS011;39382;47.168;16.008;2023-05-08T11:05:53;8.23;;;3.83;;
53497;SDS011;39382;47.168;16.008;2023-05-08T11:08:21;5.43;;;3.75;;
53497;SDS011;39382;47.168;16.008;2023-05-08T11:11:00;7.32;;;3.88;;
53497;SDS011;39382;47.168;16.008;2023-05-08T11:13:32;4.72;;;3.38;;
53497;SDS011;39382;47.168;16.008;2023-05-08T11:15:59;4.65;;;3.35;;
53497;SDS011;39382;47.168;16.008;2023-05-08T11:18:25;4.35;;;3.95;;
53497;SDS011;39382;47.168;16.008;2023-05-08T11:21:05;4.78;;;3.60;;
53497;SDS011;39382;47.168;16.008;2023-05-08T11:23:39;4.55;;;3.33;;
53497;SDS011;39382;47.168;16.008;2023-05-08T11:26:12;4.25;;;3.70;;
53497;SDS011;39382;47.168;16.008;2023-05-08T11:28:57;4.38;;;3.53;;
53497;SDS011;39382;47.168;16.008;2023-05-08T11:31:23;6.00;;;3.83;;
53497;SDS011;39382;47.168;16.008;2023-05-08T11:37:15;4.30;;;3.47;;
53497;SDS011;39382;47.168;16.008;2023-05-08T11:39:45;2.63;;;2.28;;
53497;SDS011;39382;47.168;16.008;2023-05-08T11:45:05;4.95;;;2.60;;
53497;SDS011;39382;47.168;16.008;2023-05-08T11:47:36;3.70;;;2.90;;
53497;SDS011;39382;47.168;16.008;2023-05-08T11:50:05;4.70;;;2.92;;
53497;SDS011;39382;47.168;16.008;2023-05-08T11:52:36;3.97;;;3.05;;
53497;SDS011;39382;47.168;16.008;2023-05-08T11:55:07;3.50;;;2.60;;
53497;SDS011;39382;47.168;16.008;2023-05-08T11:57:34;9.40;;;3.67;;
53497;SDS011;39382;47.168;16.008;2023-05-08T12:00:06;3.33;;;2.80;;
53497;SDS011;39382;47.168;16.008;2023-05-08T12:02:37;2.80;;;2.53;;
53497;SDS011;39382;47.168;16.008;2023-05-08T12:05:08;2.10;;;2.00;;
53497;SDS011;39382;47.168;16.008;2023-05-08T12:07:41;3.50;;;2.60;;
53497;SDS011;39382;47.168;16.008;2023-05-08T12:10:08;6.05;;;2.58;;
53497;SDS011;39382;47.168;16.008;2023-05-08T12:12:38;3.00;;;2.67;;
53497;SDS011;39382;47.168;16.008;2023-05-08T12:15:05;3.13;;;2.05;;
53497;SDS011;39382;47.168;16.008;2023-05-08T12:17:35;2.63;;;2.40;;
53497;SDS011;39382;47.168;16.008;2023-05-08T12:20:14;2.42;;;2.22;;
53497;SDS011;39382;47.168;16.008;2023-05-08T12:22:42;1.60;;;1.50;;
53497;SDS011;39382;47.168;16.008;2023-05-08T12:25:15;1.88;;;1.75;;
53497;SDS011;39382;47.168;16.008;2023-05-08T12:27:41;2.38;;;1.98;;
53497;SDS011;39382;47.168;16.008;2023-05-08T12:30:08;2.35;;;2.00;;
53497;SDS011;39382;47.168;16.008;2023-05-08T12:32:36;2.97;;;2.17;;
53497;SDS011;39382;47.168;16.008;2023-05-08T12:35:03;4.35;;;2.20;;
53497;SDS011;39382;47.168;16.008;2023-05-08T12:37:30;2.38;;;1.95;;
53497;SDS011;39382;47.168;16.008;2023-05-08T12:39:56;2.35;;;2.13;;
53497;SDS011;39382;47.168;16.008;2023-05-08T12:42:23;2.20;;;2.00;;
53497;SDS011;39382;47.168;16.008;2023-05-08T12:45:24;2.13;;;1.92;;
53497;SDS011;39382;47.168;16.008;2023-05-08T12:48:04;2.75;;;1.65;;
53497;SDS011;39382;47.168;16.008;2023-05-08T12:50:35;2.58;;;1.65;;
53497;SDS011;39382;47.168;16.008;2023-05-08T12:53:02;1.60;;;1.50;;
53497;SDS011;39382;47.168;16.008;2023-05-08T12:55:30;3.97;;;2.13;;
53497;SDS011;39382;47.168;16.008;2023-05-08T12:58:09;2.42;;;1.88;;
53497;SDS011;39382;47.168;16.008;2023-05-08T13:00:40;2.60;;;1.73;;
53497;SDS011;39382;47.168;16.008;2023-05-08T13:03:07;2.00;;;1.90;;
53497;SDS011;39382;47.168;16.008;2023-05-08T13:05:34;3.85;;;1.88;;
53497;SDS011;39382;47.168;16.008;2023-05-08T13:08:06;1.90;;;1.73;;
53497;SDS011;39382;47.168;16.008;2023-05-08T13:13:14;2.08;;;1.40;;
53497;SDS011;39382;47.168;16.008;2023-05-08T13:15:41;2.42;;;1.85;;
53497;SDS011;39382;47.168;16.008;2023-05-08T13:18:07;2.17;;;1.67;;
53497;SDS011;39382;47.168;16.008;2023-05-08T13:20:33;1.85;;;1.75;;
53497;SDS011;39382;47.168;16.008;2023-05-08T13:22:59;1.80;;;1.70;;
53497;SDS011;39382;47.168;16.008;2023-05-08T13:25:25;1.90;;;1.80;;
53497;SDS011;39382;47.168;16.008;2023-05-08T13:27:50;1.67;;;1.58;;
53497;SDS011;39382;47.168;16.008;2023-05-08T13:30:16;2.22;;;1.98;;
53497;SDS011;39382;47.168;16.008;2023-05-08T13:32:42;2.05;;;1.85;;
53497;SDS011;39382;47.168;16.008;2023-05-08T13:35:08;2.00;;;1.83;;
53497;SDS011;39382;47.168;16.008;2023-05-08T13:37:34;2.53;;;1.50;;
53497;SDS011;39382;47.168;16.008;2023-05-08T13:39:59;1.60;;;1.50;;
53497;SDS011;39382;47.168;16.008;2023-05-08T13:42:25;1.90;;;1.50;;
53497;SDS011;39382;47.168;16.008;2023-05-08T13:44:51;1.65;;;1.52;;
53497;SDS011;39382;47.168;16.008;2023-05-08T13:47:16;2.38;;;1.85;;
53497;SDS011;39382;47.168;16.008;2023-05-08T13:49:42;1.77;;;1.67;;
53497;SDS011;39382;47.168;16.008;2023-05-08T13:52:08;2.22;;;1.85;;
53497;SDS011;39382;47.168;16.008;2023-05-08T13:54:34;1.58;;;1.48;;
53497;SDS011;39382;47.168;16.008;2023-05-08T13:57:00;2.13;;;1.70;;
53497;SDS011;39382;47.168;16.008;2023-05-08T13:59:26;1.70;;;1.60;;
53497;SDS011;39382;47.168;16.008;2023-05-08T14:01:52;1.75;;;1.60;;
53497;SDS011;39382;47.168;16.008;2023-05-08T14:04:18;2.30;;;2.10;;
53497;SDS011;39382;47.168;16.008;2023-05-08T14:06:43;1.52;;;1.42;;
53497;SDS011;39382;47.168;16.008;2023-05-08T14:09:10;1.70;;;1.60;;
53497;SDS011;39382;47.168;16.008;2023-05-08T14:11:35;1.30;;;1.20;;
53497;SDS011;39382;47.168;16.008;2023-05-08T14:14:01;4.00;;;1.98;;
53497;SDS011;39382;47.168;16.008;2023-05-08T14:16:27;2.90;;;1.92;;
53497;SDS011;39382;47.168;16.008;2023-05-08T14:18:52;1.40;;;1.30;;
53497;SDS011;39382;47.168;16.008;2023-05-08T14:21:18;1.35;;;1.25;;
53497;SDS011;39382;47.168;16.008;2023-05-08T14:23:44;3.33;;;2.10;;
53497;SDS011;39382;47.168;16.008;2023-05-08T14:26:09;7.88;;;1.63;;
53497;SDS011;39382;47.168;16.008;2023-05-08T14:28:35;3.67;;;2.15;;
53497;SDS011;39382;47.168;16.008;2023-05-08T14:31:01;3.47;;;1.83;;
53497;SDS011;39382;47.168;16.008;2023-05-08T14:33:27;1.75;;;1.65;;
53497;SDS011;39382;47.168;16.008;2023-05-08T14:35:53;1.70;;;1.55;;
53497;SDS011;39382;47.168;16.008;2023-05-08T14:38:18;2.10;;;1.67;;
53497;SDS011;39382;47.168;16.008;2023-05-08T14:40:44;1.77;;;1.67;;
53497;SDS011;39382;47.168;16.008;2023-05-08T14:43:10;2.67;;;2.00;;
53497;SDS011;39382;47.168;16.008;2023-05-08T14:45:35;1.90;;;1.55;;
53497;SDS011;39382;47.168;16.008;2023-05-08T14:48:01;2.05;;;1.73;;
53497;SDS011;39382;47.168;16.008;2023-05-08T14:50:26;2.13;;;1.75;;
53497;SDS011;39382;47.168;16.008;2023-05-08T14:52:52;3.05;;;2.00;;
53497;SDS011;39382;47.168;16.008;2023-05-08T14:55:18;2.13;;;1.98;;
53497;SDS011;39382;47.168;16.008;2023-05-08T14:57:48;1.95;;;1.75;;
53497;SDS011;39382;47.168;16.008;2023-05-08T15:00:14;2.38;;;1.70;;
53497;SDS011;39382;47.168;16.008;2023-05-08T15:02:40;3.78;;;3.13;;
53497;SDS011;39382;47.168;16.008;2023-05-08T15:05:06;3.92;;;2.10;;
53497;SDS011;39382;47.168;16.008;2023-05-08T15:07:32;5.55;;;1.90;;
53497;SDS011;39382;47.168;16.008;2023-05-08T15:09:58;1.77;;;1.67;;
53497;SDS011;39382;47.168;16.008;2023-05-08T15:12:24;2.40;;;1.90;;
53497;SDS011;39382;47.168;16.008;2023-05-08T15:14:50;2.33;;;2.08;;
53497;SDS011;39382;47.168;16.008;2023-05-08T15:17:15;2.35;;;2.13;;
53497;SDS011;39382;47.168;16.008;2023-05-08T15:19:41;4.55;;;2.55;;
53497;SDS011;39382;47.168;16.008;2023-05-08T15:22:07;5.45;;;1.70;;
53497;SDS011;39382;47.168;16.008;2023-05-08T15:24:33;3.45;;;2.45;;